createdAt,value
2022-10-29T00:00:22.948Z,12.12
2022-10-29T00:02:25.129Z,12.00
2022-10-29T00:04:27.032Z,11.95
2022-10-29T00:06:29.909Z,12.06
2022-10-29T00:08:33.716Z,11.97
2022-10-29T00:10:35.591Z,12.06
2022-10-29T00:12:37.491Z,12.09
2022-10-29T00:14:39.410Z,12.07
2022-10-29T00:16:41.345Z,12.12
2022-10-29T00:18:44.029Z,12.04
2022-10-29T00:20:45.918Z,12.14
2022-10-29T00:22:48.289Z,12.16
2022-10-29T00:24:50.202Z,12.14
2022-10-29T00:26:51.984Z,11.82
2022-10-29T00:28:55.583Z,11.68
2022-10-29T00:30:57.502Z,11.77
2022-10-29T00:32:59.386Z,11.68
2022-10-29T00:35:01.159Z,11.70
2022-10-29T00:37:05.258Z,11.67
2022-10-29T00:39:07.149Z,11.54
2022-10-29T00:41:12.527Z,11.53
2022-10-29T00:43:20.181Z,11.45
2022-10-29T00:45:22.184Z,11.53
2022-10-29T00:47:32.060Z,11.59
2022-10-29T00:49:35.106Z,11.66
2022-10-29T00:51:38.665Z,11.58
2022-10-29T00:53:55.016Z,11.58
2022-10-29T00:55:57.881Z,11.58
2022-10-29T00:58:01.045Z,11.62
2022-10-29T01:00:03.954Z,11.63
2022-10-29T01:02:05.976Z,11.66
2022-10-29T01:04:09.263Z,11.72
2022-10-29T01:06:12.378Z,11.61
2022-10-29T01:08:15.445Z,11.68
2022-10-29T01:10:25.126Z,11.73
2022-10-29T01:13:02.216Z,11.67
2022-10-29T01:15:35.967Z,11.59
2022-10-29T01:17:43.656Z,11.58
2022-10-29T01:20:14.737Z,11.64
2022-10-29T01:22:33.437Z,11.64
2022-10-29T01:24:38.008Z,11.59
2022-10-29T01:27:01.331Z,11.53
2022-10-29T01:29:18.280Z,11.50
2022-10-29T01:31:35.733Z,11.47
2022-10-29T01:33:37.539Z,11.49
2022-10-29T01:35:56.466Z,11.71
2022-10-29T01:38:09.438Z,11.72
2022-10-29T01:40:21.725Z,11.76
2022-10-29T01:42:29.538Z,11.74
2022-10-29T01:44:54.285Z,11.55
2022-10-29T01:47:01.613Z,11.46
2022-10-29T01:49:08.158Z,11.55
2022-10-29T01:51:16.905Z,11.51
2022-10-29T01:53:19.469Z,11.43
2022-10-29T01:55:24.253Z,11.39
2022-10-29T01:57:34.059Z,11.50
2022-10-29T01:59:51.307Z,11.29
2022-10-29T02:02:18.609Z,11.28
2022-10-29T02:04:39.013Z,11.32
2022-10-29T02:06:51.043Z,11.27
2022-10-29T02:08:59.126Z,11.27
2022-10-29T02:11:13.210Z,11.27
2022-10-29T02:13:17.715Z,11.30
2022-10-29T02:15:35.007Z,11.30
2022-10-29T02:17:37.582Z,11.31
2022-10-29T02:19:39.605Z,11.19
2022-10-29T02:21:42.738Z,11.06
2022-10-29T02:23:45.009Z,11.15
2022-10-29T02:25:46.942Z,11.16
2022-10-29T02:27:48.904Z,11.25
2022-10-29T02:29:50.862Z,11.22
2022-10-29T02:31:52.677Z,11.28
2022-10-29T02:33:54.566Z,11.23
2022-10-29T02:35:56.477Z,11.27
2022-10-29T02:37:59.373Z,11.37
2022-10-29T02:40:01.307Z,11.47
2022-10-29T02:42:03.344Z,11.51
2022-10-29T02:44:05.169Z,11.60
2022-10-29T02:46:15.308Z,11.82
2022-10-29T02:48:17.185Z,11.84
2022-10-29T02:50:19.183Z,11.86
2022-10-29T02:52:21.249Z,12.10
2022-10-29T02:54:24.131Z,12.07
2022-10-29T02:56:26.199Z,12.10
2022-10-29T02:58:28.190Z,12.07
2022-10-29T03:00:30.028Z,12.13
2022-10-29T03:02:32.088Z,12.08
2022-10-29T03:04:34.318Z,12.14
2022-10-29T03:06:37.383Z,12.18
2022-10-29T03:08:39.283Z,12.11
2022-10-29T03:10:41.185Z,12.11
2022-10-29T03:12:43.056Z,12.07
2022-10-29T03:14:44.989Z,12.15
2022-10-29T03:16:46.871Z,12.18
2022-10-29T03:18:48.786Z,12.13
2022-10-29T03:20:50.644Z,12.13
2022-10-29T03:22:52.597Z,12.16
2022-10-29T03:24:54.471Z,12.16
2022-10-29T03:26:56.289Z,12.22
2022-10-29T03:28:58.238Z,12.32
2022-10-29T03:31:00.169Z,12.24
2022-10-29T03:33:02.066Z,12.30
2022-10-29T03:35:04.193Z,12.32
2022-10-29T03:37:06.123Z,12.27
2022-10-29T03:39:08.089Z,12.38
2022-10-29T03:41:11.048Z,12.41
2022-10-29T03:43:13.049Z,12.45
2022-10-29T03:45:14.992Z,12.45
2022-10-29T03:47:16.934Z,12.43
2022-10-29T03:49:18.798Z,12.52
2022-10-29T03:51:20.725Z,12.67
2022-10-29T03:53:23.530Z,12.71
2022-10-29T03:55:25.508Z,12.79
2022-10-29T03:57:27.381Z,12.65
2022-10-29T03:59:29.231Z,12.70
2022-10-29T04:01:31.204Z,12.73
2022-10-29T04:03:35.220Z,12.73
2022-10-29T04:05:37.020Z,12.70
2022-10-29T04:07:38.899Z,12.80
2022-10-29T04:09:40.779Z,12.77
2022-10-29T04:11:42.680Z,12.76
2022-10-29T04:13:44.608Z,12.77
2022-10-29T04:15:47.144Z,12.84
2022-10-29T04:17:51.396Z,12.83
2022-10-29T04:19:53.292Z,12.92
2022-10-29T04:29:01.785Z,12.82
2022-10-29T04:31:07.880Z,12.83
2022-10-29T04:33:09.722Z,12.86
2022-10-29T04:35:11.561Z,12.86
2022-10-29T04:37:13.729Z,12.84
2022-10-29T04:39:18.352Z,12.76
2022-10-29T04:41:22.979Z,12.83
2022-10-29T04:43:24.821Z,12.91
2022-10-29T04:45:27.031Z,12.79
2022-10-29T04:47:29.684Z,12.86
2022-10-29T04:49:31.699Z,12.94
2022-10-29T04:51:33.690Z,12.88
2022-10-29T04:53:35.585Z,12.87
2022-10-29T04:55:38.767Z,12.92
2022-10-29T04:57:40.664Z,12.89
2022-10-29T04:59:42.591Z,12.95
2022-10-29T05:01:44.402Z,12.93
2022-10-29T05:03:46.276Z,12.99
2022-10-29T05:05:48.147Z,12.89
2022-10-29T05:07:50.125Z,12.94
2022-10-29T05:09:52.008Z,12.94
2022-10-29T05:11:53.887Z,12.89
2022-10-29T05:13:55.814Z,13.01
2022-10-29T05:15:57.735Z,13.04
2022-10-29T05:18:02.770Z,13.05
2022-10-29T05:20:05.072Z,13.09
2022-10-29T05:22:06.905Z,13.16
2022-10-29T05:24:08.806Z,13.10
2022-10-29T05:26:10.662Z,13.19
2022-10-29T05:28:15.262Z,13.17
2022-10-29T05:30:17.235Z,13.22
2022-10-29T05:32:19.147Z,13.15
2022-10-29T05:34:21.728Z,13.14
2022-10-29T05:36:23.670Z,13.25
2022-10-29T05:38:27.152Z,13.22
2022-10-29T05:40:28.999Z,13.18
2022-10-29T05:42:30.907Z,13.19
2022-10-29T05:44:33.121Z,13.29
2022-10-29T05:46:38.587Z,13.25
2022-10-29T05:48:40.632Z,13.17
2022-10-29T05:50:45.430Z,13.21
2022-10-29T05:52:58.983Z,13.14
2022-10-29T05:55:01.137Z,13.12
2022-10-29T05:57:02.963Z,13.10
2022-10-29T05:59:04.895Z,13.18
2022-10-29T06:01:08.466Z,13.15
2022-10-29T06:03:21.164Z,13.12
2022-10-29T06:05:26.550Z,13.16
2022-10-29T06:07:28.423Z,13.15
2022-10-29T06:09:30.471Z,13.19
2022-10-29T06:11:32.409Z,13.18
2022-10-29T06:13:34.323Z,13.21
2022-10-29T06:15:36.203Z,13.18
2022-10-29T06:17:42.589Z,13.11
2022-10-29T06:19:44.498Z,13.07
2022-10-29T06:21:46.607Z,13.09
2022-10-29T06:23:48.484Z,13.07
2022-10-29T06:25:50.446Z,13.01
2022-10-29T06:28:02.923Z,13.08
2022-10-29T06:30:06.315Z,13.06
2022-10-29T06:32:08.214Z,13.08
2022-10-29T06:34:10.056Z,13.07
2022-10-29T06:36:12.969Z,13.07
2022-10-29T06:38:15.309Z,13.10
2022-10-29T06:40:17.861Z,13.19
2022-10-29T06:42:19.762Z,13.29
2022-10-29T06:44:21.612Z,13.25
2022-10-29T06:46:23.599Z,13.26
2022-10-29T06:48:25.639Z,13.24
2022-10-29T06:50:28.474Z,13.31
2022-10-29T06:52:30.392Z,13.36
2022-10-29T06:54:33.269Z,13.42
2022-10-29T06:56:35.188Z,13.45
2022-10-29T06:58:37.019Z,13.52
2022-10-29T07:00:39.585Z,13.51
2022-10-29T07:02:41.540Z,13.57
2022-10-29T07:04:44.309Z,13.59
2022-10-29T07:06:46.164Z,13.53
2022-10-29T07:08:48.090Z,13.49
2022-10-29T07:10:54.412Z,13.61
2022-10-29T07:12:56.632Z,13.85
2022-10-29T07:14:58.476Z,14.04
2022-10-29T07:17:00.438Z,14.18
2022-10-29T07:19:04.559Z,14.35
2022-10-29T07:21:06.574Z,14.48
2022-10-29T07:23:09.675Z,14.58
2022-10-29T07:25:11.556Z,14.70
2022-10-29T07:27:13.670Z,14.90
2022-10-29T07:29:15.642Z,14.96
2022-10-29T07:31:17.775Z,15.06
2022-10-29T07:33:20.010Z,15.35
2022-10-29T07:35:21.988Z,15.38
2022-10-29T07:37:23.987Z,15.59
2022-10-29T07:39:26.060Z,15.74
2022-10-29T07:41:28.082Z,15.76
2022-10-29T07:43:30.010Z,16.00
2022-10-29T07:45:32.874Z,16.17
2022-10-29T07:47:34.699Z,16.22
2022-10-29T07:49:37.590Z,16.14
2022-10-29T07:51:39.528Z,16.29
2022-10-29T07:53:41.462Z,16.47
2022-10-29T07:55:43.463Z,16.31
2022-10-29T07:57:45.302Z,16.18
2022-10-29T07:59:47.298Z,16.23
2022-10-29T08:01:49.521Z,16.15
2022-10-29T08:03:51.515Z,16.12
2022-10-29T08:05:57.611Z,16.15
2022-10-29T08:08:00.327Z,16.32
2022-10-29T08:10:03.722Z,16.29
2022-10-29T08:12:07.232Z,16.32
2022-10-29T08:14:13.093Z,16.30
2022-10-29T08:16:14.935Z,16.32
2022-10-29T08:18:18.049Z,16.05
2022-10-29T08:20:21.001Z,15.70
2022-10-29T08:22:22.990Z,15.69
2022-10-29T08:24:24.891Z,16.08
2022-10-29T08:26:26.733Z,16.20
2022-10-29T08:28:30.519Z,16.21
2022-10-29T08:30:35.972Z,16.16
2022-10-29T08:32:44.501Z,16.18
2022-10-29T08:34:46.364Z,16.32
2022-10-29T08:36:48.249Z,16.39
2022-10-29T08:38:50.168Z,16.49
2022-10-29T08:41:28.733Z,16.60
2022-10-29T08:43:54.926Z,16.81
2022-10-29T08:45:57.573Z,16.83
2022-10-29T08:48:22.452Z,17.00
2022-10-29T08:50:41.399Z,17.09
2022-10-29T08:52:53.423Z,17.40
2022-10-29T08:55:19.812Z,17.42
2022-10-29T08:57:25.630Z,17.09
2022-10-29T08:59:32.852Z,16.74
2022-10-29T09:01:36.253Z,16.48
2022-10-29T09:03:38.747Z,16.42
2022-10-29T09:06:08.572Z,16.20
2022-10-29T09:08:43.460Z,16.03
2022-10-29T09:10:53.998Z,16.02
2022-10-29T09:13:55.237Z,15.90
2022-10-29T09:16:03.712Z,15.90
2022-10-29T09:18:13.386Z,15.91
2022-10-29T09:20:42.531Z,15.87
2022-10-29T09:22:47.820Z,15.81
2022-10-29T09:25:00.990Z,15.84
2022-10-29T09:27:23.115Z,15.83
2022-10-29T09:29:46.279Z,15.83
2022-10-29T09:31:53.913Z,15.82
2022-10-29T09:34:02.277Z,15.83
2022-10-29T09:36:14.397Z,15.86
2022-10-29T09:38:30.902Z,15.82
2022-10-29T09:40:37.026Z,15.85
2022-10-29T09:42:42.635Z,15.90
2022-10-29T09:44:53.425Z,15.96
2022-10-29T09:47:08.664Z,16.01
2022-10-29T09:49:31.778Z,16.03
2022-10-29T09:52:00.896Z,16.00
2022-10-29T09:54:04.370Z,16.02
2022-10-29T09:56:09.784Z,16.03
2022-10-29T09:58:21.155Z,16.01
2022-10-29T10:00:24.705Z,15.97
2022-10-29T10:02:42.481Z,15.83
2022-10-29T10:04:48.014Z,15.78
2022-10-29T10:07:01.822Z,15.75
2022-10-29T10:09:06.053Z,15.73
2022-10-29T10:11:08.409Z,15.69
2022-10-29T10:13:17.125Z,15.62
2022-10-29T10:15:28.538Z,15.55
2022-10-29T10:17:58.068Z,15.59
2022-10-29T10:20:00.186Z,15.57
2022-10-29T10:22:05.800Z,15.59
2022-10-29T10:24:29.402Z,15.69
2022-10-29T10:26:35.974Z,15.66
2022-10-29T10:28:37.932Z,15.71
2022-10-29T10:30:39.740Z,15.77
2022-10-29T10:32:41.772Z,15.76
2022-10-29T10:34:43.769Z,15.76
2022-10-29T10:37:15.507Z,15.71
2022-10-29T10:39:37.489Z,15.69
2022-10-29T10:41:42.598Z,15.69
2022-10-29T10:43:46.549Z,15.63
2022-10-29T10:45:55.516Z,15.56
2022-10-29T10:47:59.442Z,15.55
2022-10-29T10:50:20.913Z,15.58
2022-10-29T10:52:29.704Z,15.69
2022-10-29T10:54:44.571Z,15.76
2022-10-29T10:56:58.034Z,16.08
2022-10-29T10:59:07.841Z,16.32
2022-10-29T11:01:15.313Z,16.53
2022-10-29T11:03:39.842Z,16.72
2022-10-29T11:05:58.249Z,16.56
2022-10-29T11:08:09.130Z,16.50
2022-10-29T11:10:13.667Z,16.46
2022-10-29T11:12:37.323Z,16.34
2022-10-29T11:14:55.040Z,16.20
2022-10-29T11:17:02.018Z,16.16
2022-10-29T11:19:34.279Z,16.12
2022-10-29T11:22:12.652Z,16.12
2022-10-29T11:24:20.503Z,16.15
2022-10-29T11:27:01.533Z,16.09
2022-10-29T11:29:28.083Z,16.08
2022-10-29T11:31:40.919Z,16.08
2022-10-29T11:33:56.469Z,16.04
2022-10-29T11:36:06.548Z,16.01
2022-10-29T11:38:19.674Z,16.06
2022-10-29T11:40:36.810Z,16.12
2022-10-29T11:42:39.502Z,16.17
2022-10-29T11:44:41.800Z,16.21
2022-10-29T11:47:09.728Z,16.25
2022-10-29T11:49:36.424Z,16.32
2022-10-29T11:52:03.827Z,16.46
2022-10-29T11:54:33.637Z,16.45
2022-10-29T11:56:56.328Z,16.47
2022-10-29T11:59:13.886Z,16.49
2022-10-29T12:01:34.806Z,16.57
2022-10-29T12:03:51.797Z,16.83
2022-10-29T12:06:11.709Z,17.04
2022-10-29T12:08:35.166Z,17.07
2022-10-29T12:11:18.205Z,17.03
2022-10-29T12:13:24.607Z,17.03
2022-10-29T12:15:41.627Z,17.00
2022-10-29T12:18:04.897Z,16.99
2022-10-29T12:20:25.005Z,16.98
2022-10-29T12:22:40.736Z,16.97
2022-10-29T12:25:00.880Z,16.98
2022-10-29T12:27:06.585Z,16.90
2022-10-29T12:29:48.010Z,16.86
2022-10-29T12:32:01.956Z,16.79
2022-10-29T12:34:24.120Z,16.71
2022-10-29T12:37:07.986Z,16.67
2022-10-29T12:39:19.283Z,16.64
2022-10-29T12:41:25.645Z,16.63
2022-10-29T12:43:30.599Z,16.62
2022-10-29T12:48:57.810Z,16.64
2022-10-29T12:51:11.777Z,16.72
2022-10-29T12:53:44.854Z,16.74
2022-10-29T12:55:47.632Z,16.73
2022-10-29T12:57:49.532Z,16.76
2022-10-29T12:59:51.583Z,16.74
2022-10-29T13:02:11.301Z,16.79
2022-10-29T13:04:28.783Z,16.84
2022-10-29T13:06:42.814Z,16.85
2022-10-29T13:08:55.868Z,16.79
2022-10-29T13:10:58.026Z,16.79
2022-10-29T13:12:59.956Z,16.72
2022-10-29T13:15:09.610Z,16.61
2022-10-29T13:17:39.270Z,16.55
2022-10-29T13:19:50.445Z,16.52
2022-10-29T13:22:01.753Z,16.51
2022-10-29T13:24:05.444Z,16.44
2022-10-29T13:26:09.185Z,16.39
2022-10-29T13:28:31.912Z,16.32
2022-10-29T13:30:38.543Z,16.28
2022-10-29T13:32:40.413Z,16.24
2022-10-29T13:35:00.084Z,16.21
2022-10-29T13:37:37.093Z,16.12
2022-10-29T13:39:38.973Z,16.09
2022-10-29T13:41:44.365Z,16.03
2022-10-29T13:44:04.718Z,15.96
2022-10-29T13:46:17.549Z,15.90
2022-10-29T13:48:31.817Z,15.83
2022-10-29T13:50:35.570Z,15.79
2022-10-29T13:52:40.792Z,15.72
2022-10-29T13:54:47.860Z,15.67
2022-10-29T13:57:16.941Z,15.65
2022-10-29T13:59:43.109Z,15.57
2022-10-29T14:01:56.255Z,15.50
2022-10-29T14:04:06.601Z,15.50
2022-10-29T14:06:21.211Z,15.46
2022-10-29T14:08:42.204Z,15.41
2022-10-29T14:10:43.994Z,15.39
2022-10-29T14:12:48.656Z,15.35
2022-10-29T14:15:00.582Z,15.32
2022-10-29T14:17:19.455Z,15.27
2022-10-29T14:19:21.949Z,15.24
2022-10-29T14:21:27.970Z,15.20
2022-10-29T14:23:32.342Z,15.16
2022-10-29T14:25:36.414Z,15.09
2022-10-29T14:27:38.271Z,15.07
2022-10-29T14:29:40.264Z,15.02
2022-10-29T14:31:42.205Z,14.98
2022-10-29T14:33:57.976Z,14.96
2022-10-29T14:36:14.375Z,14.90
2022-10-29T14:38:17.010Z,14.91
2022-10-29T14:40:23.365Z,14.83
2022-10-29T14:42:32.746Z,14.82
2022-10-29T14:44:34.918Z,14.87
2022-10-29T14:46:38.507Z,14.85
2022-10-29T14:48:52.838Z,14.78
2022-10-29T14:50:56.745Z,14.77
2022-10-29T14:53:06.310Z,14.70
2022-10-29T14:55:18.278Z,14.77
2022-10-29T14:57:24.190Z,14.70
2022-10-29T14:59:29.427Z,14.56
2022-10-29T15:01:32.785Z,14.52
2022-10-29T15:03:35.886Z,14.52
2022-10-29T15:05:39.007Z,14.51
2022-10-29T15:07:40.926Z,14.42
2022-10-29T15:09:45.977Z,14.39
2022-10-29T15:12:09.094Z,14.23
2022-10-29T15:15:00.053Z,14.18
2022-10-29T15:17:09.662Z,14.13
2022-10-29T15:19:15.845Z,14.10
2022-10-29T15:21:27.372Z,14.12
2022-10-29T15:23:45.474Z,14.08
2022-10-29T15:25:49.692Z,13.98
2022-10-29T15:27:52.841Z,13.98
2022-10-29T15:29:55.424Z,13.92
2022-10-29T15:31:58.042Z,13.98
2022-10-29T15:34:08.914Z,13.96
2022-10-29T15:36:10.875Z,13.85
2022-10-29T15:38:41.758Z,13.87
2022-10-29T15:40:59.729Z,13.84
2022-10-29T15:43:29.271Z,13.83
2022-10-29T15:45:31.211Z,13.82
2022-10-29T15:47:34.761Z,13.76
2022-10-29T15:49:36.693Z,13.72
2022-10-29T15:51:38.520Z,13.62
2022-10-29T15:53:40.534Z,13.57
2022-10-29T15:55:43.999Z,13.59
2022-10-29T15:57:46.155Z,13.57
2022-10-29T15:59:48.034Z,13.57
2022-10-29T16:01:50.102Z,13.55
2022-10-29T16:03:52.189Z,13.49
2022-10-29T16:06:02.189Z,13.46
2022-10-29T16:08:04.344Z,13.41
2022-10-29T16:10:06.720Z,13.43
2022-10-29T16:12:10.755Z,13.46
2022-10-29T16:14:12.703Z,13.38
2022-10-29T16:16:17.544Z,13.29
2022-10-29T16:18:19.752Z,13.20
2022-10-29T16:20:21.634Z,13.30
2022-10-29T16:22:30.439Z,13.28
2022-10-29T16:24:34.242Z,13.15
2022-10-29T16:26:36.053Z,13.14
2022-10-29T16:28:38.173Z,13.13
2022-10-29T16:32:43.655Z,13.05
2022-10-29T16:34:45.558Z,13.02
2022-10-29T16:36:47.435Z,12.94
2022-10-29T16:38:49.375Z,12.97
2022-10-29T16:40:51.455Z,12.87
2022-10-29T16:42:57.009Z,12.81
2022-10-29T16:44:59.168Z,12.83
2022-10-29T16:47:01.126Z,12.78
2022-10-29T16:49:03.003Z,12.83
2022-10-29T16:51:05.598Z,12.82
2022-10-29T16:53:12.347Z,12.78
2022-10-29T16:55:14.759Z,12.75
2022-10-29T16:57:16.605Z,12.81
2022-10-29T16:59:18.812Z,12.84
2022-10-29T17:03:29.483Z,12.83
2022-10-29T17:05:34.842Z,12.82
2022-10-29T17:07:37.279Z,12.75
2022-10-29T17:09:40.173Z,12.73
2022-10-29T17:11:42.115Z,12.76
2022-10-29T17:13:44.034Z,12.77
2022-10-29T17:15:46.215Z,12.77
2022-10-29T17:17:48.297Z,12.72
2022-10-29T17:19:50.731Z,12.70
2022-10-29T17:21:53.419Z,12.66
2022-10-29T17:23:55.267Z,12.64
2022-10-29T17:25:58.487Z,12.65
2022-10-29T17:28:00.724Z,12.61
2022-10-29T17:30:02.777Z,12.60
2022-10-29T17:32:08.050Z,12.53
2022-10-29T17:34:10.217Z,12.58
2022-10-29T17:36:14.544Z,12.54
2022-10-29T17:38:16.534Z,12.57
2022-10-29T17:40:18.814Z,12.52
2022-10-29T17:42:21.260Z,12.49
2022-10-29T17:44:23.524Z,12.51
2022-10-29T17:46:25.841Z,12.51
2022-10-29T17:48:27.776Z,12.55
2022-10-29T17:50:29.638Z,12.51
2022-10-29T17:52:31.477Z,12.52
2022-10-29T17:54:35.170Z,12.48
2022-10-29T17:56:38.222Z,12.44
2022-10-29T17:58:40.249Z,12.42
2022-10-29T18:00:42.412Z,12.41
2022-10-29T18:02:49.545Z,12.37
2022-10-29T18:04:54.007Z,12.36
2022-10-29T18:06:56.703Z,12.33
2022-10-29T18:09:00.898Z,12.23
2022-10-29T18:11:12.078Z,12.31
2022-10-29T18:13:15.999Z,12.31
2022-10-29T18:15:18.295Z,12.26
2022-10-29T18:17:20.236Z,12.21
2022-10-29T18:19:22.418Z,12.17
2022-10-29T18:21:25.922Z,12.10
2022-10-29T18:23:28.084Z,12.11
2022-10-29T18:25:30.456Z,12.08
2022-10-29T18:27:32.405Z,12.04
2022-10-29T18:29:34.359Z,11.98
2022-10-29T18:31:38.172Z,11.94
2022-10-29T18:33:40.488Z,11.88
2022-10-29T18:35:42.382Z,11.92
2022-10-29T18:37:45.727Z,11.86
2022-10-29T18:39:47.587Z,11.82
2022-10-29T18:41:49.847Z,11.81
2022-10-29T18:43:52.474Z,11.84
2022-10-29T18:46:02.853Z,11.72
2022-10-29T18:48:05.357Z,11.61
2022-10-29T18:50:07.814Z,11.67
2022-10-29T18:52:09.878Z,11.66
2022-10-29T18:54:13.681Z,11.59
2022-10-29T18:56:19.826Z,11.65
2022-10-29T18:58:22.463Z,11.59
2022-10-29T19:00:24.269Z,11.53
2022-10-29T19:02:27.566Z,11.45
2022-10-29T19:04:29.842Z,11.44
2022-10-29T19:06:33.754Z,11.46
2022-10-29T19:08:37.871Z,11.36
2022-10-29T19:10:42.165Z,11.30
2022-10-29T19:12:44.060Z,11.20
2022-10-29T19:14:48.112Z,11.24
2022-10-29T19:16:50.104Z,11.26
2022-10-29T19:18:57.377Z,11.23
2022-10-29T19:21:08.831Z,11.20
2022-10-29T19:23:14.689Z,11.24
2022-10-29T19:25:17.892Z,11.15
2022-10-29T19:27:20.239Z,11.18
2022-10-29T19:29:22.117Z,11.23
2022-10-29T19:31:27.632Z,11.14
2022-10-29T19:33:31.292Z,11.14
2022-10-29T19:35:33.177Z,11.10
2022-10-29T19:37:36.534Z,11.11
2022-10-29T19:39:38.463Z,11.18
2022-10-29T19:41:40.705Z,11.16
2022-10-29T19:43:43.357Z,11.13
2022-10-29T19:45:45.407Z,11.13
2022-10-29T19:47:48.914Z,11.13
2022-10-29T19:49:51.365Z,11.15
2022-10-29T19:51:54.597Z,11.12
2022-10-29T19:53:59.499Z,11.20
2022-10-29T19:56:01.589Z,11.25
2022-10-29T19:58:04.521Z,11.27
2022-10-29T20:00:07.336Z,11.15
2022-10-29T20:02:10.998Z,11.10
2022-10-29T20:04:16.699Z,11.09
2022-10-29T20:06:19.139Z,11.05
2022-10-29T20:08:22.032Z,10.99
2022-10-29T20:10:24.455Z,11.04
2022-10-29T20:12:26.359Z,11.02
2022-10-29T20:14:29.654Z,10.99
2022-10-29T20:16:31.697Z,10.81
2022-10-29T20:18:36.484Z,10.86
2022-10-29T20:20:38.424Z,10.74
2022-10-29T20:22:40.802Z,10.95
2022-10-29T20:24:42.843Z,10.87
2022-10-29T20:26:45.010Z,10.83
2022-10-29T20:28:47.302Z,10.86
2022-10-29T20:30:49.410Z,10.89
2022-10-29T20:32:51.346Z,10.85
2022-10-29T20:34:53.757Z,10.80
2022-10-29T20:36:56.333Z,10.84
2022-10-29T20:38:58.863Z,10.72
2022-10-29T20:41:01.867Z,10.75
2022-10-29T20:43:03.822Z,10.74
2022-10-29T20:45:07.205Z,10.69
2022-10-29T20:47:09.184Z,10.66
2022-10-29T20:49:11.233Z,10.74
2022-10-29T20:51:14.707Z,10.58
2022-10-29T20:53:16.772Z,10.66
2022-10-29T20:55:18.871Z,10.60
2022-10-29T20:57:20.878Z,10.70
2022-10-29T20:59:22.742Z,10.74
2022-10-29T21:01:26.061Z,10.74
2022-10-29T21:03:28.144Z,10.74
2022-10-29T21:05:30.073Z,10.66
2022-10-29T21:07:32.047Z,10.72
2022-10-29T21:09:34.068Z,10.66
2022-10-29T21:11:36.039Z,10.65
2022-10-29T21:13:38.445Z,10.62
2022-10-29T21:15:40.371Z,10.61
2022-10-29T21:17:42.263Z,10.62
2022-10-29T21:19:46.242Z,10.60
2022-10-29T21:21:48.322Z,10.59
2022-10-29T21:23:50.322Z,10.71
2022-10-29T21:25:53.765Z,10.69
2022-10-29T21:27:56.024Z,10.73
2022-10-29T21:29:58.397Z,10.78
2022-10-29T21:32:00.440Z,10.77
2022-10-29T21:34:02.930Z,10.76
2022-10-29T21:36:05.918Z,10.84
2022-10-29T21:38:07.955Z,10.85
2022-10-29T21:40:10.710Z,10.82
2022-10-29T21:42:12.855Z,10.84
2022-10-29T21:44:15.752Z,10.88
2022-10-29T21:46:17.638Z,10.87
2022-10-29T21:48:21.848Z,10.85
2022-10-29T21:50:23.839Z,10.88
2022-10-29T21:52:25.722Z,10.88
2022-10-29T21:54:28.437Z,10.89
2022-10-29T21:56:30.556Z,10.90
2022-10-29T21:58:33.204Z,10.89
2022-10-29T22:00:35.220Z,10.89
2022-10-29T22:02:38.167Z,10.93
2022-10-29T22:04:40.189Z,10.93
2022-10-29T22:06:42.037Z,10.97
2022-10-29T22:08:44.508Z,10.97
2022-10-29T22:10:46.466Z,11.00
2022-10-29T22:12:54.661Z,11.03
2022-10-29T22:14:56.676Z,11.05
2022-10-29T22:16:58.909Z,11.07
2022-10-29T22:19:00.767Z,11.06
2022-10-29T22:21:11.535Z,11.03
2022-10-29T22:25:21.455Z,11.13
2022-10-29T22:27:23.276Z,11.11
2022-10-29T22:29:25.151Z,11.10
2022-10-29T22:31:27.571Z,11.09
2022-10-29T22:33:29.685Z,11.10
2022-10-29T22:35:32.696Z,11.14
2022-10-29T22:37:34.819Z,11.14
2022-10-29T22:39:37.736Z,11.15
2022-10-29T22:41:39.616Z,11.16
2022-10-29T22:43:42.632Z,11.16
2022-10-29T22:45:46.424Z,11.19
2022-10-29T22:47:49.304Z,11.24
2022-10-29T22:49:51.280Z,11.19
2022-10-29T22:51:57.139Z,11.26
2022-10-29T22:54:02.554Z,11.24
2022-10-29T22:56:05.080Z,11.26
2022-10-29T22:58:07.035Z,11.24
2022-10-29T23:00:09.532Z,11.28
2022-10-29T23:02:11.609Z,11.28
2022-10-29T23:04:13.873Z,11.27
2022-10-29T23:06:18.300Z,11.24
2022-10-29T23:08:20.165Z,11.27
2022-10-29T23:10:23.088Z,11.27
2022-10-29T23:12:24.911Z,11.27
2022-10-29T23:14:27.524Z,11.24
2022-10-29T23:16:32.863Z,11.28
2022-10-29T23:18:34.643Z,11.25
2022-10-29T23:20:38.464Z,11.26
2022-10-29T23:22:40.411Z,11.25
2022-10-29T23:24:42.248Z,11.22
2022-10-29T23:26:44.042Z,11.20
2022-10-29T23:28:46.430Z,11.18
2022-10-29T23:30:56.908Z,11.15
2022-10-29T23:33:00.558Z,11.14
2022-10-29T23:35:04.748Z,11.13
2022-10-29T23:37:09.757Z,11.08
2022-10-29T23:39:12.542Z,11.02
2022-10-29T23:41:14.804Z,10.98
2022-10-29T23:43:16.765Z,11.00
2022-10-29T23:45:18.692Z,10.96
2022-10-29T23:47:21.587Z,10.98
2022-10-29T23:49:23.479Z,10.92
2022-10-29T23:51:25.405Z,10.88
2022-10-29T23:53:29.815Z,10.81
2022-10-29T23:55:31.691Z,10.86
2022-10-29T23:57:33.527Z,10.82
2022-10-29T23:59:35.418Z,10.77
